This demonstration page uses our WeatherBlox Daily Observations layout. Learn more.

39.01783, -85.05884

Hourly Observations for August 7, 2019

Temp ( °F °C ) Dew Point ( °F °C ) Humidity (%) Winds ( mph kmh ) Pressure ( in mb ) Visibility ( mi km ) Precip ( " mm )
12:07 am 00:07 Cloudy with Heavy Thunderstorms 74 23.3 67 19.4 79 79 SW 18 30 29.8 1009 3 4.828032 0.01 0.254
12:18 am 00:18 Cloudy with Heavy Thunderstorms 71 21.7 65 18.3 81 81 SE 15 24 29.8 1009 1 1.609344 0.7 17.78
12:27 am 00:27 Cloudy with Thunderstorms 71 21.7 64 17.8 79 79 W 5 7 29.8 1009 3 4.828032 0.96 24.384
12:52 am 00:52 Cloudy with Thunderstorms 70 21.1 64 17.8 82 82 E 6 9 29.77 1008 10 16.09344 1.12 28.448
1:52 am 01:52 Cloudy with Light Rain 69 20.6 67 19.4 93 93 S 6 9 29.8 1009 9 14.484096 0.001 0.001
2:15 am 02:15 Mostly Cloudy 69 20.6 67 19.4 93 93 SSE 6 9 29.8 1009 9 14.484096 0.001 0.001
2:52 am 02:52 Partly Cloudy 69 20.6 66 18.9 90 90 SW 6 9 29.8 1009 10 16.09344 0.001 0.001
3:52 am 03:52 Partly Cloudy 68 20 66 18.9 93 93 SSW 6 9 29.8 1009 7 11.265408 0 0
4:52 am 04:52 Mostly Clear 68 20 66 18.9 93 93 SW 3 6 29.8 1009 7 11.265408 0 0
5:24 am 05:24 Partly Cloudy with Mist and Fog 68 20 66 18.9 93 93 SW 6 9 29.8 1009 2 3.218688 0 0
5:28 am 05:28 Mostly Cloudy with Mist and Fog 68 20 66 18.9 93 93 SW 6 9 29.8 1009 0.5 0.804672 0 0
5:52 am 05:52 Cloudy with Mist and Fog 68 20 66 18.9 93 93 SW 6 9 29.8 1009 0.5 0.804672 0 0
6:21 am 06:21 Partly Cloudy with Mist and Fog 68 20 66 18.9 93 93 WSW 5 7 29.8 1009 1.5 2.414016 0 0
6:52 am 06:52 Partly Cloudy with Patchy Fog 68 20 66 18.9 93 93 SW 3 6 29.83 1010 2 3.218688 0 0
7:13 am 07:13 Mostly Cloudy with Patchy Fog 68 20 66 18.9 93 93 SSW 5 7 29.83 1010 2 3.218688 0 0
7:52 am 07:52 Mostly Cloudy with Mist and Fog 69 20.6 66 18.9 90 90 WSW 3 6 29.83 1010 2 3.218688 0 0
8:52 am 08:52 Mostly Cloudy with Mist and Fog 71 21.7 68 20 90 90 W 7 11 29.83 1010 2.5 4.02336 0 0
9:41 am 09:41 Cloudy with Mist and Fog 71 21.7 67 19.4 87 87 WSW 5 7 29.85 1011 2.5 4.02336 0 0
9:52 am 09:52 Mostly Cloudy with Mist and Fog 72 22.2 67 19.4 84 84 W 5 7 29.83 1010 2.5 4.02336 0 0
9:54 am 09:54 Mostly Cloudy with Mist and Fog 72 22.2 67 19.4 84 84 W 6 9 29.85 1011 4 6.437376 0 0
10:52 am 10:52 Mostly Cloudy 74 23.3 67 19.4 79 79 VRB 6 9 29.85 1011 8 12.874752 0 0
10:56 am 10:56 Mostly Cloudy 74 23.3 67 19.4 79 79 W 7 11 29.85 1011 10 16.09344 0 0
11:11 am 11:11 Partly Cloudy 77 25 68 20 74 74 W 6 9 29.85 1011 10 16.09344 0 0
11:52 am 11:52 Partly Cloudy 78 25.6 68 20 71 71 WNW 7 11 29.85 1011 10 16.09344 0 0
12:52 pm 12:52 Mostly Sunny 82 27.8 64 17.8 55 55 WSW 8 13 29.83 1010 10 16.09344 0 0
1:52 pm 13:52 Mostly Sunny 84 28.9 62 16.7 48 48 W 8 13 29.83 1010 10 16.09344 0 0
2:52 pm 14:52 Mostly Sunny 86 30 60 15.6 42 42 WNW 10 17 29.8 1009 10 16.09344 0 0
3:52 pm 15:52 Mostly Sunny 85 29.4 60 15.6 43 43 VRB 7 11 29.8 1009 10 16.09344 0 0
4:52 pm 16:52 Mostly Sunny 85 29.4 59 15 42 42 WSW 10 17 29.8 1009 10 16.09344 0 0
5:52 pm 17:52 Mostly Sunny 85 29.4 58 14.4 40 40 W 13 20 29.8 1009 10 16.09344 0 0
6:52 pm 18:52 Mostly Sunny 85 29.4 56 13.3 37 37 NW 10 17 29.8 1009 10 16.09344 0 0
7:52 pm 19:52 Mostly Sunny 83 28.3 58 14.4 43 43 NW 6 9 29.8 1009 10 16.09344 0 0
8:52 pm 20:52 Clear 77 25 60 15.6 56 56 W 6 9 29.8 1009 10 16.09344 0 0
9:52 pm 21:52 Mostly Clear 73 22.8 60 15.6 64 64 Calm 29.83 1010 10 16.09344 0 0
10:52 pm 22:52 Clear 72 22.2 62 16.7 71 71 Calm 29.83 1010 10 16.09344 0 0
11:52 pm 23:52 Mostly Clear 73 22.8 61 16.1 66 66 SW 5 7 29.83 1010 10 16.09344 0 0

Powered by AerisWeather